sensor_id;sensor_type;location;lat;lon;timestamp;P1;durP1;ratioP1;P2;durP2;ratioP2
21266;SDS011;10791;53.108;18.326;2022-08-01T00:00:26;5.90;;;4.40;;
21266;SDS011;10791;53.108;18.326;2022-08-01T00:05:43;9.37;;;4.70;;
21266;SDS011;10791;53.108;18.326;2022-08-01T00:10:51;5.90;;;4.37;;
21266;SDS011;10791;53.108;18.326;2022-08-01T00:15:54;6.83;;;4.30;;
21266;SDS011;10791;53.108;18.326;2022-08-01T00:21:00;7.40;;;4.90;;
21266;SDS011;10791;53.108;18.326;2022-08-01T00:26:04;8.70;;;4.87;;
21266;SDS011;10791;53.108;18.326;2022-08-01T00:31:13;6.37;;;4.13;;
21266;SDS011;10791;53.108;18.326;2022-08-01T00:36:16;5.70;;;4.17;;
21266;SDS011;10791;53.108;18.326;2022-08-01T00:41:23;6.47;;;4.13;;
21266;SDS011;10791;53.108;18.326;2022-08-01T00:46:32;5.13;;;4.50;;
21266;SDS011;10791;53.108;18.326;2022-08-01T00:51:38;4.87;;;4.03;;
21266;SDS011;10791;53.108;18.326;2022-08-01T00:56:42;5.87;;;4.40;;
21266;SDS011;10791;53.108;18.326;2022-08-01T01:01:46;7.80;;;5.00;;
21266;SDS011;10791;53.108;18.326;2022-08-01T01:17:36;5.87;;;3.77;;
21266;SDS011;10791;53.108;18.326;2022-08-01T01:33:40;6.43;;;4.50;;
21266;SDS011;10791;53.108;18.326;2022-08-01T01:38:48;5.13;;;3.87;;
21266;SDS011;10791;53.108;18.326;2022-08-01T01:43:55;5.63;;;3.87;;
21266;SDS011;10791;53.108;18.326;2022-08-01T01:49:00;7.70;;;3.70;;
21266;SDS011;10791;53.108;18.326;2022-08-01T01:54:06;8.77;;;4.33;;
21266;SDS011;10791;53.108;18.326;2022-08-01T01:59:11;7.53;;;4.40;;
21266;SDS011;10791;53.108;18.326;2022-08-01T02:04:16;34.07;;;6.03;;
21266;SDS011;10791;53.108;18.326;2022-08-01T02:09:20;8.20;;;4.07;;
21266;SDS011;10791;53.108;18.326;2022-08-01T02:14:25;10.07;;;5.43;;
21266;SDS011;10791;53.108;18.326;2022-08-01T02:19:32;7.97;;;3.90;;
21266;SDS011;10791;53.108;18.326;2022-08-01T02:29:52;7.70;;;4.70;;
21266;SDS011;10791;53.108;18.326;2022-08-01T02:35:01;5.07;;;4.40;;
21266;SDS011;10791;53.108;18.326;2022-08-01T02:40:10;8.27;;;4.60;;
21266;SDS011;10791;53.108;18.326;2022-08-01T02:45:20;8.50;;;4.47;;
21266;SDS011;10791;53.108;18.326;2022-08-01T02:50:29;9.10;;;4.30;;
21266;SDS011;10791;53.108;18.326;2022-08-01T02:55:43;8.33;;;4.60;;
21266;SDS011;10791;53.108;18.326;2022-08-01T03:00:50;9.07;;;4.87;;
21266;SDS011;10791;53.108;18.326;2022-08-01T03:05:54;8.47;;;4.27;;
21266;SDS011;10791;53.108;18.326;2022-08-01T03:10:59;10.17;;;4.40;;
21266;SDS011;10791;53.108;18.326;2022-08-01T03:16:04;7.90;;;4.37;;
21266;SDS011;10791;53.108;18.326;2022-08-01T03:21:09;10.43;;;5.00;;
21266;SDS011;10791;53.108;18.326;2022-08-01T03:26:18;11.90;;;4.97;;
21266;SDS011;10791;53.108;18.326;2022-08-01T03:31:22;12.87;;;5.60;;
21266;SDS011;10791;53.108;18.326;2022-08-01T03:36:30;25.30;;;5.80;;
21266;SDS011;10791;53.108;18.326;2022-08-01T03:41:40;15.40;;;6.33;;
21266;SDS011;10791;53.108;18.326;2022-08-01T03:46:47;9.90;;;6.17;;
21266;SDS011;10791;53.108;18.326;2022-08-01T03:51:54;16.27;;;6.87;;
21266;SDS011;10791;53.108;18.326;2022-08-01T03:56:59;9.33;;;6.63;;
21266;SDS011;10791;53.108;18.326;2022-08-01T04:02:07;10.10;;;6.60;;
21266;SDS011;10791;53.108;18.326;2022-08-01T04:07:28;8.03;;;6.43;;
21266;SDS011;10791;53.108;18.326;2022-08-01T04:12:38;10.73;;;6.80;;
21266;SDS011;10791;53.108;18.326;2022-08-01T04:17:45;8.97;;;6.50;;
21266;SDS011;10791;53.108;18.326;2022-08-01T04:22:52;8.40;;;6.53;;
21266;SDS011;10791;53.108;18.326;2022-08-01T04:27:58;6.50;;;5.77;;
21266;SDS011;10791;53.108;18.326;2022-08-01T04:33:07;7.70;;;6.17;;
21266;SDS011;10791;53.108;18.326;2022-08-01T04:38:12;6.80;;;5.67;;
21266;SDS011;10791;53.108;18.326;2022-08-01T04:43:20;6.40;;;5.80;;
21266;SDS011;10791;53.108;18.326;2022-08-01T04:48:24;7.77;;;6.20;;
21266;SDS011;10791;53.108;18.326;2022-08-01T04:53:31;7.17;;;6.47;;
21266;SDS011;10791;53.108;18.326;2022-08-01T04:58:35;7.67;;;6.50;;
21266;SDS011;10791;53.108;18.326;2022-08-01T05:03:42;10.77;;;8.70;;
21266;SDS011;10791;53.108;18.326;2022-08-01T05:08:46;10.47;;;8.90;;
21266;SDS011;10791;53.108;18.326;2022-08-01T05:13:49;8.97;;;7.93;;
21266;SDS011;10791;53.108;18.326;2022-08-01T05:19:02;11.13;;;8.37;;
21266;SDS011;10791;53.108;18.326;2022-08-01T05:24:05;9.73;;;8.13;;
21266;SDS011;10791;53.108;18.326;2022-08-01T05:29:09;10.30;;;7.80;;
21266;SDS011;10791;53.108;18.326;2022-08-01T05:34:12;8.13;;;6.63;;
21266;SDS011;10791;53.108;18.326;2022-08-01T05:39:17;10.27;;;7.50;;
21266;SDS011;10791;53.108;18.326;2022-08-01T05:44:22;9.30;;;8.17;;
21266;SDS011;10791;53.108;18.326;2022-08-01T05:49:26;10.73;;;8.20;;
21266;SDS011;10791;53.108;18.326;2022-08-01T05:54:30;21.80;;;10.27;;
21266;SDS011;10791;53.108;18.326;2022-08-01T05:59:34;13.93;;;9.10;;
21266;SDS011;10791;53.108;18.326;2022-08-01T06:04:37;10.03;;;7.77;;
21266;SDS011;10791;53.108;18.326;2022-08-01T06:09:40;13.20;;;9.27;;
21266;SDS011;10791;53.108;18.326;2022-08-01T06:14:44;12.57;;;7.80;;
21266;SDS011;10791;53.108;18.326;2022-08-01T06:19:47;9.73;;;8.40;;
21266;SDS011;10791;53.108;18.326;2022-08-01T06:24:50;8.33;;;7.23;;
21266;SDS011;10791;53.108;18.326;2022-08-01T06:29:56;10.63;;;6.20;;
21266;SDS011;10791;53.108;18.326;2022-08-01T06:35:06;7.43;;;6.40;;
21266;SDS011;10791;53.108;18.326;2022-08-01T06:40:13;9.07;;;6.70;;
21266;SDS011;10791;53.108;18.326;2022-08-01T06:45:18;8.03;;;6.70;;
21266;SDS011;10791;53.108;18.326;2022-08-01T06:50:24;9.00;;;6.13;;
21266;SDS011;10791;53.108;18.326;2022-08-01T06:55:28;6.93;;;5.40;;
21266;SDS011;10791;53.108;18.326;2022-08-01T07:00:32;8.88;;;5.85;;
21266;SDS011;10791;53.108;18.326;2022-08-01T07:05:35;5.75;;;4.85;;
21266;SDS011;10791;53.108;18.326;2022-08-01T07:10:39;10.27;;;4.97;;
21266;SDS011;10791;53.108;18.326;2022-08-01T07:15:43;7.03;;;4.45;;
21266;SDS011;10791;53.108;18.326;2022-08-01T07:20:46;7.50;;;4.28;;
21266;SDS011;10791;53.108;18.326;2022-08-01T07:25:53;8.25;;;4.18;;
21266;SDS011;10791;53.108;18.326;2022-08-01T07:31:04;8.68;;;3.97;;
21266;SDS011;10791;53.108;18.326;2022-08-01T07:36:08;7.57;;;4.68;;
21266;SDS011;10791;53.108;18.326;2022-08-01T07:41:12;5.43;;;4.10;;
21266;SDS011;10791;53.108;18.326;2022-08-01T07:46:15;7.38;;;5.70;;
21266;SDS011;10791;53.108;18.326;2022-08-01T07:51:19;9.65;;;6.05;;
21266;SDS011;10791;53.108;18.326;2022-08-01T07:56:22;7.85;;;5.75;;
21266;SDS011;10791;53.108;18.326;2022-08-01T08:01:31;8.88;;;4.75;;
21266;SDS011;10791;53.108;18.326;2022-08-01T08:06:35;8.80;;;5.22;;
21266;SDS011;10791;53.108;18.326;2022-08-01T08:11:48;10.00;;;4.55;;
21266;SDS011;10791;53.108;18.326;2022-08-01T08:16:52;8.40;;;4.40;;
21266;SDS011;10791;53.108;18.326;2022-08-01T08:21:55;4.50;;;3.25;;
21266;SDS011;10791;53.108;18.326;2022-08-01T08:26:59;4.18;;;3.00;;
21266;SDS011;10791;53.108;18.326;2022-08-01T08:32:03;4.18;;;2.75;;
21266;SDS011;10791;53.108;18.326;2022-08-01T08:37:10;3.83;;;2.50;;
21266;SDS011;10791;53.108;18.326;2022-08-01T08:42:14;3.58;;;2.65;;
21266;SDS011;10791;53.108;18.326;2022-08-01T08:47:21;5.35;;;2.65;;
21266;SDS011;10791;53.108;18.326;2022-08-01T08:52:26;6.75;;;2.80;;
21266;SDS011;10791;53.108;18.326;2022-08-01T08:57:29;5.22;;;3.15;;
21266;SDS011;10791;53.108;18.326;2022-08-01T09:02:35;4.45;;;2.92;;
21266;SDS011;10791;53.108;18.326;2022-08-01T09:07:42;6.57;;;3.30;;
21266;SDS011;10791;53.108;18.326;2022-08-01T09:13:05;3.97;;;3.53;;
21266;SDS011;10791;53.108;18.326;2022-08-01T09:23:38;5.10;;;3.50;;
21266;SDS011;10791;53.108;18.326;2022-08-01T09:28:56;5.45;;;3.80;;
21266;SDS011;10791;53.108;18.326;2022-08-01T09:34:01;6.90;;;3.67;;
21266;SDS011;10791;53.108;18.326;2022-08-01T09:39:11;7.32;;;3.22;;
21266;SDS011;10791;53.108;18.326;2022-08-01T09:44:17;5.20;;;3.67;;
21266;SDS011;10791;53.108;18.326;2022-08-01T09:49:41;5.55;;;2.92;;
21266;SDS011;10791;53.108;18.326;2022-08-01T09:54:56;7.97;;;2.90;;
21266;SDS011;10791;53.108;18.326;2022-08-01T10:00:16;4.60;;;3.13;;
21266;SDS011;10791;53.108;18.326;2022-08-01T10:05:44;3.40;;;2.97;;
21266;SDS011;10791;53.108;18.326;2022-08-01T10:11:10;5.57;;;3.30;;
21266;SDS011;10791;53.108;18.326;2022-08-01T10:16:17;6.20;;;3.70;;
21266;SDS011;10791;53.108;18.326;2022-08-01T10:21:23;5.80;;;3.63;;
21266;SDS011;10791;53.108;18.326;2022-08-01T10:26:51;5.90;;;3.28;;
21266;SDS011;10791;53.108;18.326;2022-08-01T10:32:02;6.38;;;2.92;;
21266;SDS011;10791;53.108;18.326;2022-08-01T10:37:08;4.30;;;2.95;;
21266;SDS011;10791;53.108;18.326;2022-08-01T10:42:20;9.52;;;2.50;;
21266;SDS011;10791;53.108;18.326;2022-08-01T10:47:34;3.78;;;2.70;;
21266;SDS011;10791;53.108;18.326;2022-08-01T10:58:26;3.83;;;2.55;;
21266;SDS011;10791;53.108;18.326;2022-08-01T11:04:05;4.10;;;2.80;;
21266;SDS011;10791;53.108;18.326;2022-08-01T11:09:58;7.05;;;2.50;;
21266;SDS011;10791;53.108;18.326;2022-08-01T11:20:08;3.25;;;2.38;;
21266;SDS011;10791;53.108;18.326;2022-08-01T11:25:18;5.00;;;2.20;;
21266;SDS011;10791;53.108;18.326;2022-08-01T11:31:27;4.15;;;1.83;;
21266;SDS011;10791;53.108;18.326;2022-08-01T11:41:50;3.15;;;2.03;;
21266;SDS011;10791;53.108;18.326;2022-08-01T11:46:54;3.28;;;2.03;;
21266;SDS011;10791;53.108;18.326;2022-08-01T11:52:00;3.83;;;1.88;;
21266;SDS011;10791;53.108;18.326;2022-08-01T12:02:20;5.97;;;2.13;;
21266;SDS011;10791;53.108;18.326;2022-08-01T12:07:35;5.03;;;2.00;;
21266;SDS011;10791;53.108;18.326;2022-08-01T12:12:46;5.05;;;2.10;;
21266;SDS011;10791;53.108;18.326;2022-08-01T12:17:55;4.32;;;2.15;;
21266;SDS011;10791;53.108;18.326;2022-08-01T12:23:04;6.00;;;2.13;;
21266;SDS011;10791;53.108;18.326;2022-08-01T12:28:10;4.25;;;2.00;;
21266;SDS011;10791;53.108;18.326;2022-08-01T12:33:23;4.10;;;2.10;;
21266;SDS011;10791;53.108;18.326;2022-08-01T12:38:27;8.50;;;2.50;;
21266;SDS011;10791;53.108;18.326;2022-08-01T12:43:33;9.27;;;2.17;;
21266;SDS011;10791;53.108;18.326;2022-08-01T12:48:37;3.75;;;1.90;;
21266;SDS011;10791;53.108;18.326;2022-08-01T12:53:41;3.03;;;2.20;;
21266;SDS011;10791;53.108;18.326;2022-08-01T12:58:44;3.75;;;2.40;;
21266;SDS011;10791;53.108;18.326;2022-08-01T13:04:00;4.97;;;2.22;;
21266;SDS011;10791;53.108;18.326;2022-08-01T13:09:09;4.55;;;2.00;;
21266;SDS011;10791;53.108;18.326;2022-08-01T13:14:27;2.30;;;1.80;;
21266;SDS011;10791;53.108;18.326;2022-08-01T13:19:41;2.85;;;2.00;;
21266;SDS011;10791;53.108;18.326;2022-08-01T13:24:49;4.03;;;1.95;;
21266;SDS011;10791;53.108;18.326;2022-08-01T13:29:52;5.50;;;2.13;;
21266;SDS011;10791;53.108;18.326;2022-08-01T13:35:06;3.63;;;2.67;;
21266;SDS011;10791;53.108;18.326;2022-08-01T13:40:11;2.30;;;2.05;;
21266;SDS011;10791;53.108;18.326;2022-08-01T13:45:14;2.53;;;1.90;;
21266;SDS011;10791;53.108;18.326;2022-08-01T13:50:17;6.18;;;2.45;;
21266;SDS011;10791;53.108;18.326;2022-08-01T13:55:23;3.38;;;2.25;;
21266;SDS011;10791;53.108;18.326;2022-08-01T14:00:26;3.50;;;2.40;;
21266;SDS011;10791;53.108;18.326;2022-08-01T14:05:29;4.50;;;2.35;;
21266;SDS011;10791;53.108;18.326;2022-08-01T14:10:33;5.03;;;2.33;;
21266;SDS011;10791;53.108;18.326;2022-08-01T14:15:36;6.10;;;2.13;;
21266;SDS011;10791;53.108;18.326;2022-08-01T14:20:41;4.47;;;2.08;;
21266;SDS011;10791;53.108;18.326;2022-08-01T14:25:45;4.97;;;2.05;;
21266;SDS011;10791;53.108;18.326;2022-08-01T14:31:06;6.32;;;2.50;;
21266;SDS011;10791;53.108;18.326;2022-08-01T14:36:10;3.47;;;2.38;;
21266;SDS011;10791;53.108;18.326;2022-08-01T14:41:31;3.50;;;2.40;;
21266;SDS011;10791;53.108;18.326;2022-08-01T14:46:35;3.78;;;2.40;;
21266;SDS011;10791;53.108;18.326;2022-08-01T14:51:57;4.65;;;2.38;;
21266;SDS011;10791;53.108;18.326;2022-08-01T14:57:02;2.28;;;2.00;;
21266;SDS011;10791;53.108;18.326;2022-08-01T15:02:05;3.47;;;2.25;;
21266;SDS011;10791;53.108;18.326;2022-08-01T15:07:10;3.90;;;2.40;;
21266;SDS011;10791;53.108;18.326;2022-08-01T15:12:14;5.80;;;2.40;;
21266;SDS011;10791;53.108;18.326;2022-08-01T15:17:18;3.72;;;2.10;;
21266;SDS011;10791;53.108;18.326;2022-08-01T15:22:32;5.50;;;2.03;;
21266;SDS011;10791;53.108;18.326;2022-08-01T15:27:36;4.43;;;2.58;;
21266;SDS011;10791;53.108;18.326;2022-08-01T15:32:45;3.13;;;2.33;;
21266;SDS011;10791;53.108;18.326;2022-08-01T15:37:52;5.40;;;3.25;;
21266;SDS011;10791;53.108;18.326;2022-08-01T15:42:58;4.88;;;2.30;;
21266;SDS011;10791;53.108;18.326;2022-08-01T15:48:02;6.53;;;2.53;;
21266;SDS011;10791;53.108;18.326;2022-08-01T15:53:05;2.60;;;2.20;;
21266;SDS011;10791;53.108;18.326;2022-08-01T15:58:09;4.03;;;2.88;;
21266;SDS011;10791;53.108;18.326;2022-08-01T16:03:13;3.00;;;2.38;;
21266;SDS011;10791;53.108;18.326;2022-08-01T16:08:16;4.45;;;2.92;;
21266;SDS011;10791;53.108;18.326;2022-08-01T16:13:20;3.53;;;2.75;;
21266;SDS011;10791;53.108;18.326;2022-08-01T16:18:24;5.90;;;2.38;;
21266;SDS011;10791;53.108;18.326;2022-08-01T16:23:28;5.82;;;2.50;;
21266;SDS011;10791;53.108;18.326;2022-08-01T16:28:32;4.85;;;2.65;;
21266;SDS011;10791;53.108;18.326;2022-08-01T16:33:35;5.07;;;3.20;;
21266;SDS011;10791;53.108;18.326;2022-08-01T16:38:52;4.20;;;2.65;;
21266;SDS011;10791;53.108;18.326;2022-08-01T16:43:56;5.53;;;2.63;;
21266;SDS011;10791;53.108;18.326;2022-08-01T16:49:00;6.55;;;2.80;;
21266;SDS011;10791;53.108;18.326;2022-08-01T16:54:04;4.03;;;2.63;;
21266;SDS011;10791;53.108;18.326;2022-08-01T16:59:27;4.25;;;2.50;;
21266;SDS011;10791;53.108;18.326;2022-08-01T17:04:30;5.72;;;2.78;;
21266;SDS011;10791;53.108;18.326;2022-08-01T17:09:34;5.95;;;3.17;;
21266;SDS011;10791;53.108;18.326;2022-08-01T17:14:44;3.33;;;2.70;;
21266;SDS011;10791;53.108;18.326;2022-08-01T17:19:48;4.10;;;3.10;;
21266;SDS011;10791;53.108;18.326;2022-08-01T17:24:53;3.10;;;2.63;;
21266;SDS011;10791;53.108;18.326;2022-08-01T17:29:56;5.57;;;2.97;;
21266;SDS011;10791;53.108;18.326;2022-08-01T17:35:00;5.90;;;2.97;;
21266;SDS011;10791;53.108;18.326;2022-08-01T17:40:04;4.22;;;3.30;;
21266;SDS011;10791;53.108;18.326;2022-08-01T17:45:29;8.57;;;4.85;;
21266;SDS011;10791;53.108;18.326;2022-08-01T17:50:42;4.85;;;3.47;;
21266;SDS011;10791;53.108;18.326;2022-08-01T17:55:47;10.88;;;8.60;;
21266;SDS011;10791;53.108;18.326;2022-08-01T18:00:58;10.70;;;8.05;;
21266;SDS011;10791;53.108;18.326;2022-08-01T18:06:02;6.35;;;3.83;;
21266;SDS011;10791;53.108;18.326;2022-08-01T18:11:06;5.75;;;3.33;;
21266;SDS011;10791;53.108;18.326;2022-08-01T18:16:10;8.07;;;4.22;;
21266;SDS011;10791;53.108;18.326;2022-08-01T18:21:14;7.72;;;4.90;;
21266;SDS011;10791;53.108;18.326;2022-08-01T18:26:21;8.40;;;5.57;;
21266;SDS011;10791;53.108;18.326;2022-08-01T18:31:25;6.82;;;5.20;;
21266;SDS011;10791;53.108;18.326;2022-08-01T18:36:28;10.27;;;5.93;;
21266;SDS011;10791;53.108;18.326;2022-08-01T18:41:35;15.43;;;6.57;;
21266;SDS011;10791;53.108;18.326;2022-08-01T18:46:40;24.88;;;7.82;;
21266;SDS011;10791;53.108;18.326;2022-08-01T18:51:43;27.15;;;6.78;;
21266;SDS011;10791;53.108;18.326;2022-08-01T18:56:49;39.38;;;8.07;;
21266;SDS011;10791;53.108;18.326;2022-08-01T19:01:53;32.15;;;8.57;;
21266;SDS011;10791;53.108;18.326;2022-08-01T19:06:57;14.45;;;8.02;;
21266;SDS011;10791;53.108;18.326;2022-08-01T19:12:00;14.93;;;8.45;;
21266;SDS011;10791;53.108;18.326;2022-08-01T19:17:06;14.18;;;7.20;;
21266;SDS011;10791;53.108;18.326;2022-08-01T19:22:09;17.23;;;9.45;;
21266;SDS011;10791;53.108;18.326;2022-08-01T19:27:14;14.45;;;8.15;;
21266;SDS011;10791;53.108;18.326;2022-08-01T19:32:22;23.42;;;15.63;;
21266;SDS011;10791;53.108;18.326;2022-08-01T19:37:28;15.25;;;11.20;;
21266;SDS011;10791;53.108;18.326;2022-08-01T19:42:32;12.00;;;9.85;;
21266;SDS011;10791;53.108;18.326;2022-08-01T19:47:36;14.45;;;10.13;;
21266;SDS011;10791;53.108;18.326;2022-08-01T19:52:59;12.57;;;9.32;;
21266;SDS011;10791;53.108;18.326;2022-08-01T19:58:06;8.75;;;7.85;;
21266;SDS011;10791;53.108;18.326;2022-08-01T20:03:30;8.93;;;7.07;;
21266;SDS011;10791;53.108;18.326;2022-08-01T20:08:36;10.07;;;7.75;;
21266;SDS011;10791;53.108;18.326;2022-08-01T20:13:40;10.45;;;7.93;;
21266;SDS011;10791;53.108;18.326;2022-08-01T20:18:44;13.35;;;9.15;;
21266;SDS011;10791;53.108;18.326;2022-08-01T20:23:48;11.05;;;8.18;;
21266;SDS011;10791;53.108;18.326;2022-08-01T20:28:55;13.23;;;9.55;;
21266;SDS011;10791;53.108;18.326;2022-08-01T20:34:00;14.45;;;11.82;;
21266;SDS011;10791;53.108;18.326;2022-08-01T20:39:08;19.83;;;12.50;;
21266;SDS011;10791;53.108;18.326;2022-08-01T20:44:17;16.42;;;12.15;;
21266;SDS011;10791;53.108;18.326;2022-08-01T20:49:24;14.98;;;11.55;;
21266;SDS011;10791;53.108;18.326;2022-08-01T20:54:29;14.40;;;11.77;;
21266;SDS011;10791;53.108;18.326;2022-08-01T21:06:22;17.75;;;13.25;;
21266;SDS011;10791;53.108;18.326;2022-08-01T21:12:08;18.65;;;12.32;;
21266;SDS011;10791;53.108;18.326;2022-08-01T21:17:05;14.23;;;11.25;;
21266;SDS011;10791;53.108;18.326;2022-08-01T21:23:19;12.27;;;10.07;;
21266;SDS011;10791;53.108;18.326;2022-08-01T21:27:59;11.93;;;10.15;;
21266;SDS011;10791;53.108;18.326;2022-08-01T21:33:05;9.55;;;8.35;;
21266;SDS011;10791;53.108;18.326;2022-08-01T21:38:14;11.65;;;9.77;;
21266;SDS011;10791;53.108;18.326;2022-08-01T21:43:19;11.98;;;8.18;;
21266;SDS011;10791;53.108;18.326;2022-08-01T21:48:27;10.80;;;7.45;;
21266;SDS011;10791;53.108;18.326;2022-08-01T21:53:34;10.88;;;7.93;;
21266;SDS011;10791;53.108;18.326;2022-08-01T22:04:44;11.10;;;6.43;;
21266;SDS011;10791;53.108;18.326;2022-08-01T22:10:04;11.00;;;6.00;;
21266;SDS011;10791;53.108;18.326;2022-08-01T22:15:08;11.38;;;6.22;;
21266;SDS011;10791;53.108;18.326;2022-08-01T22:20:12;7.95;;;6.03;;
21266;SDS011;10791;53.108;18.326;2022-08-01T22:25:16;9.40;;;5.70;;
21266;SDS011;10791;53.108;18.326;2022-08-01T22:30:20;16.08;;;5.95;;
21266;SDS011;10791;53.108;18.326;2022-08-01T22:35:23;11.18;;;5.10;;
21266;SDS011;10791;53.108;18.326;2022-08-01T22:40:28;12.77;;;5.10;;
21266;SDS011;10791;53.108;18.326;2022-08-01T22:50:49;8.32;;;5.03;;
21266;SDS011;10791;53.108;18.326;2022-08-01T22:56:13;8.38;;;3.53;;
21266;SDS011;10791;53.108;18.326;2022-08-01T23:01:18;8.15;;;3.92;;
21266;SDS011;10791;53.108;18.326;2022-08-01T23:06:40;6.65;;;3.20;;
21266;SDS011;10791;53.108;18.326;2022-08-01T23:11:45;10.10;;;3.35;;
21266;SDS011;10791;53.108;18.326;2022-08-01T23:16:49;9.20;;;3.80;;
21266;SDS011;10791;53.108;18.326;2022-08-01T23:21:53;5.72;;;2.88;;
21266;SDS011;10791;53.108;18.326;2022-08-01T23:26:59;7.38;;;3.30;;
21266;SDS011;10791;53.108;18.326;2022-08-01T23:32:23;5.07;;;2.50;;
21266;SDS011;10791;53.108;18.326;2022-08-01T23:37:36;7.03;;;2.50;;
21266;SDS011;10791;53.108;18.326;2022-08-01T23:42:40;3.15;;;2.40;;
21266;SDS011;10791;53.108;18.326;2022-08-01T23:47:43;6.10;;;2.72;;
21266;SDS011;10791;53.108;18.326;2022-08-01T23:52:46;5.05;;;2.42;;
21266;SDS011;10791;53.108;18.326;2022-08-01T23:57:51;4.65;;;2.70;;
